Time;durP1;ratioP1;P1;durP2;ratioP2;P2;SDS_P1;SDS_P2;PMS_P1;PMS_P2;Temp;Humidity;BMP_temperature;BMP_pressure;BME280_temperature;BME280_humidity;BME280_pressure;Samples;Min_cycle;Max_cycle;Signal;HPM_P1;HPM_P2
2022/04/11 00:01:11;;;;;;;10.90;6.35;;;;;;;3.83;nan;101804.94;5057753;28;20059;-55
2022/04/11 00:03:36;;;;;;;9.27;4.60;;;;;;;4.24;nan;101864.41;5057458;28;20041;-55
2022/04/11 00:06:02;;;;;;;9.32;5.35;;;;;;;4.29;nan;101871.41;5057938;28;20485;-57
2022/04/11 00:08:27;;;;;;;8.73;5.05;;;;;;;3.97;nan;101792.91;5056176;28;20024;-57
2022/04/11 00:10:52;;;;;;;5.95;4.70;;;;;;;4.01;nan;101792.94;5058133;28;20033;-56
2022/04/11 00:13:18;;;;;;;7.82;5.05;;;;;;;4.09;nan;101801.69;5057472;28;20059;-56
2022/04/11 00:15:43;;;;;;;9.10;5.07;;;;;;;4.03;nan;101789.50;5056366;28;20041;-57
2022/04/11 00:18:08;;;;;;;8.48;4.38;;;;;;;4.43;nan;101853.28;5057439;28;20089;-58
2022/04/11 00:20:34;;;;;;;11.10;5.57;;;;;;;4.44;nan;101855.91;5057761;28;20114;-55
2022/04/11 00:22:59;;;;;;;6.55;4.75;;;;;;;4.08;nan;101785.22;5072831;28;20033;-58
2022/04/11 00:25:25;;;;;;;5.53;3.80;;;;;;;4.43;nan;101845.47;5056152;28;20049;-57
2022/04/11 00:27:52;;;;;;;13.10;5.22;;;;;;;4.50;nan;101868.13;5056197;28;20079;-57
2022/04/11 00:30:18;;;;;;;7.93;4.38;;;;;;;4.51;nan;101849.88;5057580;28;20203;-57
2022/04/11 00:32:44;;;;;;;5.72;4.32;;;;;;;4.14;nan;101795.72;5072938;28;20163;-57
2022/04/11 00:35:11;;;;;;;8.13;4.25;;;;;;;4.13;nan;101777.44;5056238;28;20029;-57
2022/04/11 00:37:39;;;;;;;6.53;4.35;;;;;;;4.52;nan;101837.75;5057501;28;20032;-57
2022/04/11 00:40:09;;;;;;;8.40;4.95;;;;;;;4.51;nan;101860.31;5054614;28;20452;-58
2022/04/11 00:42:34;;;;;;;9.18;4.88;;;;;;;4.15;nan;101792.22;5052498;28;20061;-58
2022/04/11 00:45:00;;;;;;;7.50;4.38;;;;;;;4.44;nan;101852.41;5054034;28;20073;-54
2022/04/11 00:47:26;;;;;;;9.57;4.68;;;;;;;4.45;nan;101851.56;5052817;28;20405;-58
2022/04/11 00:50:05;;;;;;;8.93;5.32;;;;;;;4.20;nan;101816.63;5054015;28;20039;-57
2022/04/11 00:52:32;;;;;;;10.13;4.60;;;;;;;4.25;nan;101827.94;5069520;28;20040;-54
2022/04/11 00:54:58;;;;;;;6.72;4.47;;;;;;;3.93;nan;101782.47;5054060;28;20039;-58
2022/04/11 00:57:24;;;;;;;9.07;5.22;;;;;;;4.29;nan;101852.31;5054017;28;20402;-56
2022/04/11 00:59:50;;;;;;;6.05;4.32;;;;;;;4.15;nan;101823.50;5052611;28;20060;-58
2022/04/11 01:02:15;;;;;;;7.97;4.82;;;;;;;3.86;nan;101776.31;5053743;28;20033;-57
2022/04/11 01:04:41;;;;;;;10.38;4.95;;;;;;;3.87;nan;101780.69;5053759;28;20058;-56
2022/04/11 01:07:07;;;;;;;9.18;4.80;;;;;;;4.13;nan;101824.34;5053776;28;20029;-59
2022/04/11 01:09:33;;;;;;;9.07;5.32;;;;;;;3.84;nan;101775.44;5053763;28;20037;-56
2022/04/11 01:11:58;;;;;;;7.15;4.30;;;;;;;4.12;nan;101825.19;5053668;28;20044;-58
2022/04/11 01:14:24;;;;;;;10.98;5.10;;;;;;;3.72;nan;101766.63;5053436;28;20457;-58
2022/04/11 01:16:50;;;;;;;6.55;4.30;;;;;;;4.06;nan;101828.59;5053759;28;20044;-55
2022/04/11 01:19:16;;;;;;;7.40;4.85;;;;;;;3.96;nan;101812.03;5053608;28;20146;-59
2022/04/11 01:21:42;;;;;;;8.25;5.22;;;;;;;3.95;nan;101807.69;5052595;28;20566;-56
2022/04/11 01:24:08;;;;;;;7.20;5.30;;;;;;;3.89;nan;101807.59;5053473;28;20051;-58
2022/04/11 01:26:33;;;;;;;8.80;4.95;;;;;;;3.93;nan;101818.94;5053353;28;20033;-57
2022/04/11 01:28:58;;;;;;;8.27;4.93;;;;;;;3.86;nan;101807.56;5053315;28;20041;-55
2022/04/11 01:31:25;;;;;;;6.65;4.13;;;;;;;3.45;nan;101737.69;5053306;28;20466;-56
2022/04/11 01:33:50;;;;;;;8.48;5.00;;;;;;;3.83;nan;101820.56;5053290;28;20120;-57
2022/04/11 01:36:16;;;;;;;7.32;4.28;;;;;;;3.51;nan;101762.06;5052295;28;20065;-56
2022/04/11 01:38:41;;;;;;;6.28;4.43;;;;;;;3.75;nan;101810.94;5053164;28;20048;-57
2022/04/11 01:41:06;;;;;;;5.18;4.68;;;;;;;3.39;nan;101755.00;5053176;28;20387;-55
2022/04/11 01:43:32;;;;;;;10.85;5.50;;;;;;;3.29;nan;101740.16;5052864;28;20032;-56
2022/04/11 01:45:57;;;;;;;8.88;4.90;;;;;;;3.37;nan;101758.44;5053021;28;20049;-57
2022/04/11 01:48:22;;;;;;;6.38;4.63;;;;;;;3.60;nan;101806.44;5051869;28;20122;-59
2022/04/11 01:50:48;;;;;;;6.88;4.97;;;;;;;3.06;nan;101706.91;5052921;28;20045;-57
2022/04/11 01:53:19;;;;;;;8.30;4.80;;;;;;;3.11;nan;101728.63;5051333;28;20033;-55
2022/04/11 01:55:45;;;;;;;9.63;5.07;;;;;;;3.15;nan;101738.25;5052974;28;20037;-58
2022/04/11 01:58:11;;;;;;;8.65;5.28;;;;;;;3.39;nan;101801.84;5052793;28;20409;-56
2022/04/11 02:00:38;;;;;;;6.25;4.63;;;;;;;3.35;nan;101807.88;5068391;28;20107;-54
2022/04/11 02:03:04;;;;;;;8.18;4.65;;;;;;;3.31;nan;101800.00;5052583;28;20037;-54
2022/04/11 02:05:30;;;;;;;9.73;5.45;;;;;;;2.81;nan;101727.41;5051476;28;20120;-58
2022/04/11 02:07:59;;;;;;;7.90;4.85;;;;;;;2.72;nan;101716.88;5052641;28;20039;-58
2022/04/11 02:10:24;;;;;;;6.68;4.82;;;;;;;3.11;nan;101794.56;5051364;28;20432;-59
2022/04/11 02:12:50;;;;;;;7.60;4.53;;;;;;;3.08;nan;101799.72;5067868;28;20037;-58
2022/04/11 02:15:16;;;;;;;9.25;5.72;;;;;;;2.60;nan;101721.03;5052333;28;20433;-54
2022/04/11 02:17:42;;;;;;;8.25;5.38;;;;;;;2.66;nan;101741.91;5051155;28;20071;-55
2022/04/11 02:20:08;;;;;;;11.57;5.57;;;;;;;2.54;nan;101726.16;5052312;28;20394;-58
2022/04/11 02:22:47;;;;;;;8.45;5.43;;;;;;;2.50;nan;101722.63;5050858;28;20029;-56
2022/04/11 02:25:14;;;;;;;8.45;4.82;;;;;;;2.74;nan;101800.94;5067435;28;20067;-58
2022/04/11 02:27:40;;;;;;;8.13;4.45;;;;;;;2.76;nan;101777.59;5052327;28;20029;-57
2022/04/11 02:30:06;;;;;;;7.47;5.43;;;;;;;2.77;nan;101777.59;5051006;28;20037;-56
2022/04/11 02:32:31;;;;;;;9.77;5.90;;;;;;;2.77;nan;101787.16;5052109;28;20107;-58
2022/04/11 02:34:58;;;;;;;9.98;5.38;;;;;;;2.75;nan;101791.44;5050830;28;20094;-59
2022/04/11 02:37:23;;;;;;;6.95;5.72;;;;;;;2.67;nan;101786.13;5050581;28;20086;-57
2022/04/11 02:39:48;;;;;;;8.32;5.35;;;;;;;2.70;nan;101793.97;5051869;28;20029;-57
2022/04/11 02:42:41;;;;;;;10.23;6.57;;;;;;;2.71;nan;101780.13;5052167;28;20045;-56
2022/04/11 02:45:07;;;;;;;11.80;6.88;;;;;;;2.67;nan;101780.06;5049490;28;20053;-59
2022/04/11 02:47:32;;;;;;;9.77;6.13;;;;;;;2.39;nan;101724.22;5051613;28;20033;-57
2022/04/11 02:49:57;;;;;;;9.20;6.32;;;;;;;2.71;nan;101789.66;5051772;28;20041;-58
2022/04/11 02:52:23;;;;;;;12.38;7.30;;;;;;;2.70;nan;101786.19;5051507;28;20071;-58
2022/04/11 02:54:48;;;;;;;10.43;7.57;;;;;;;2.69;nan;101788.75;5050236;28;20036;-58
2022/04/11 02:57:13;;;;;;;8.35;5.78;;;;;;;2.00;nan;101679.44;5051680;28;20044;-57
2022/04/11 02:59:39;;;;;;;9.90;6.50;;;;;;;2.69;nan;101773.13;5051574;28;20063;-58
2022/04/11 03:02:04;;;;;;;10.52;6.70;;;;;;;2.68;nan;101779.22;5051554;28;20033;-59
2022/04/11 03:04:30;;;;;;;7.82;6.93;;;;;;;2.68;nan;101782.69;5050978;28;20082;-57
2022/04/11 03:06:56;;;;;;;9.75;6.70;;;;;;;2.27;nan;101708.44;5050218;28;20116;-57
2022/04/11 03:09:22;;;;;;;8.65;6.80;;;;;;;2.65;nan;101764.44;5051566;28;20033;-56
2022/04/11 03:11:47;;;;;;;14.95;8.10;;;;;;;2.64;nan;101762.69;5066864;28;20063;-58
2022/04/11 03:14:13;;;;;;;11.55;7.07;;;;;;;2.62;nan;101771.31;5051337;28;20044;-55
2022/04/11 03:16:40;;;;;;;10.65;7.05;;;;;;;2.60;nan;101770.41;5051288;28;20029;-57
2022/04/11 03:19:05;;;;;;;13.00;7.65;;;;;;;2.57;nan;101773.00;5051239;28;20044;-59
2022/04/11 03:21:31;;;;;;;10.68;7.45;;;;;;;2.55;nan;101764.28;5051276;28;20400;-56
2022/04/11 03:23:56;;;;;;;11.63;7.90;;;;;;;1.40;nan;101566.00;5051170;28;20041;-58
2022/04/11 03:26:21;;;;;;;10.77;7.07;;;;;;;2.09;nan;101695.16;5051202;28;20037;-56
2022/04/11 03:28:47;;;;;;;9.38;7.78;;;;;;;1.99;nan;101682.88;5051331;28;20052;-57
2022/04/11 03:31:12;;;;;;;10.23;7.13;;;;;;;2.41;nan;101771.88;5051275;28;20041;-56
2022/04/11 03:33:38;;;;;;;8.73;7.30;;;;;;;1.99;nan;101690.66;5049809;28;20032;-59
2022/04/11 03:36:04;;;;;;;11.35;8.10;;;;;;;2.32;nan;101771.72;5050895;28;20127;-56
2022/04/11 03:38:29;;;;;;;12.73;8.85;;;;;;;2.22;nan;101739.53;5051336;28;20029;-57
2022/04/11 03:44:32;;;;;;;12.60;8.07;;;;;;;2.26;nan;101754.31;5051001;28;20091;-57
2022/04/11 03:47:01;;;;;;;12.73;8.13;;;;;;;2.10;nan;101710.75;5065455;28;20057;-58
2022/04/11 03:49:26;;;;;;;15.18;8.75;;;;;;;2.32;nan;101747.47;5050323;28;20087;-56
2022/04/11 03:51:57;;;;;;;16.40;9.18;;;;;;;2.28;nan;101733.53;5050694;28;20037;-55
2022/04/11 03:54:23;;;;;;;15.75;9.73;;;;;;;2.40;nan;101740.66;5050277;28;20040;-58
2022/04/11 03:56:48;;;;;;;11.50;8.77;;;;;;;2.33;nan;101721.53;5050759;28;20041;-56
2022/04/11 03:59:13;;;;;;;9.65;8.38;;;;;;;2.13;nan;101694.38;5051197;28;20044;-57
2022/04/11 04:01:39;;;;;;;11.48;8.18;;;;;;;2.00;nan;101669.94;5049779;28;20033;-57
2022/04/11 04:04:04;;;;;;;17.05;10.25;;;;;;;2.47;nan;101738.19;5050848;28;20048;-58
2022/04/11 04:06:30;;;;;;;16.60;9.55;;;;;;;2.48;nan;101746.88;5051231;28;20029;-58
2022/04/11 04:08:55;;;;;;;13.98;9.18;;;;;;;2.50;nan;101739.94;5050772;28;20383;-57
2022/04/11 04:11:20;;;;;;;12.85;9.32;;;;;;;2.39;nan;101731.13;5050821;28;20037;-57
2022/04/11 04:13:46;;;;;;;14.30;10.20;;;;;;;2.03;nan;101662.19;5049537;28;20044;-58
2022/04/11 04:16:11;;;;;;;13.38;9.15;;;;;;;2.49;nan;101733.88;5052329;28;20048;-57
2022/04/11 04:18:36;;;;;;;11.73;9.60;;;;;;;2.46;nan;101738.16;5054709;28;20609;-55
2022/04/11 04:21:02;;;;;;;13.02;10.43;;;;;;;2.20;nan;101675.41;5054744;28;20032;-57
2022/04/11 04:23:27;;;;;;;12.52;9.57;;;;;;;2.18;nan;101669.34;5054428;28;20389;-57
2022/04/11 04:25:52;;;;;;;12.32;9.77;;;;;;;2.58;nan;101727.94;5054043;28;20035;-57
2022/04/11 04:28:18;;;;;;;11.60;9.95;;;;;;;2.36;nan;101684.31;5054762;28;20059;-55
2022/04/11 04:30:46;;;;;;;14.40;10.00;;;;;;;2.59;nan;101719.28;5054487;28;20132;-58
2022/04/11 04:33:12;;;;;;;15.35;9.77;;;;;;;2.60;nan;101721.03;5053283;28;20119;-56
2022/04/11 04:35:38;;;;;;;13.20;11.10;;;;;;;2.65;nan;101725.47;5054398;28;20075;-56
2022/04/11 04:38:03;;;;;;;15.05;10.55;;;;;;;2.28;nan;101670.34;5054269;28;20024;-56
2022/04/11 04:40:29;;;;;;;14.90;11.27;;;;;;;2.17;nan;101652.88;5052801;28;20033;-59
2022/04/11 04:42:54;;;;;;;14.10;10.82;;;;;;;2.51;nan;101729.56;5054340;28;20462;-54
2022/04/11 04:45:20;;;;;;;13.23;11.25;;;;;;;2.45;nan;101726.88;5054084;28;20218;-57
2022/04/11 04:47:45;;;;;;;17.48;12.30;;;;;;;2.32;nan;101708.50;5052815;28;20444;-59
2022/04/11 04:50:10;;;;;;;17.15;12.25;;;;;;;2.32;nan;101724.97;5054165;28;20075;-57
2022/04/11 04:52:38;;;;;;;14.95;11.43;;;;;;;2.23;nan;101722.22;5054407;28;20090;-57
2022/04/11 04:55:04;;;;;;;14.95;11.15;;;;;;;2.22;nan;101721.34;5054031;28;20037;-56
2022/04/11 04:57:29;;;;;;;14.07;11.38;;;;;;;1.82;nan;101654.06;5053829;28;20111;-57
2022/04/11 04:59:55;;;;;;;15.30;11.52;;;;;;;2.13;nan;101728.13;5054045;28;20534;-56
2022/04/11 05:02:20;;;;;;;19.60;12.98;;;;;;;2.10;nan;101726.34;5053645;28;20192;-58
2022/04/11 05:04:45;;;;;;;17.38;12.32;;;;;;;2.07;nan;101731.47;5053750;28;20056;-54
2022/04/11 05:07:11;;;;;;;17.67;13.27;;;;;;;1.61;nan;101651.97;5053781;28;20095;-55
2022/04/11 05:09:36;;;;;;;17.15;13.05;;;;;;;2.00;nan;101720.97;5053781;28;20033;-58
2022/04/11 05:12:02;;;;;;;16.05;13.18;;;;;;;1.96;nan;101714.84;5052638;28;20143;-57
2022/04/11 05:14:27;;;;;;;16.65;13.60;;;;;;;2.02;nan;101722.75;5053669;28;20033;-56
2022/04/11 05:16:53;;;;;;;15.77;13.70;;;;;;;2.03;nan;101715.84;5053783;28;20040;-58
2022/04/11 05:19:18;;;;;;;18.50;14.23;;;;;;;1.69;nan;101655.56;5053603;28;20051;-55
2022/04/11 05:21:43;;;;;;;18.13;14.40;;;;;;;2.07;nan;101720.25;5053294;28;20082;-58
2022/04/11 05:24:09;;;;;;;16.77;13.80;;;;;;;2.07;nan;101718.50;5053159;28;20044;-57
2022/04/11 05:26:34;;;;;;;16.67;13.60;;;;;;;2.08;nan;101725.44;5052728;28;20116;-55
2022/04/11 05:28:59;;;;;;;15.60;13.90;;;;;;;2.05;nan;101716.72;5053446;28;20095;-57
2022/04/11 05:31:25;;;;;;;16.48;14.52;;;;;;;2.03;nan;101716.72;5051874;28;20067;-55
2022/04/11 05:33:50;;;;;;;16.77;14.38;;;;;;;2.13;nan;101720.34;5053257;28;20029;-58
2022/04/11 05:36:15;;;;;;;18.05;14.65;;;;;;;2.15;nan;101710.84;5053354;28;20040;-58
2022/04/11 05:38:41;;;;;;;19.08;14.65;;;;;;;2.07;nan;101702.91;5051623;28;20041;-58
2022/04/11 05:41:07;;;;;;;16.50;14.57;;;;;;;1.95;nan;101673.31;5052414;28;20047;-58
2022/04/11 05:43:32;;;;;;;17.17;14.50;;;;;;;2.23;nan;101714.44;5053074;28;20036;-55
2022/04/11 05:45:59;;;;;;;17.25;13.55;;;;;;;2.35;nan;101717.22;5052609;28;20140;-59
2022/04/11 05:48:24;;;;;;;16.90;14.18;;;;;;;2.20;nan;101678.00;5051788;28;20041;-58
2022/04/11 05:50:50;;;;;;;15.80;14.10;;;;;;;2.63;nan;101727.16;5053000;28;20041;-58
2022/04/11 05:53:15;;;;;;;15.60;13.90;;;;;;;2.74;nan;101725.56;5052714;28;20466;-56
2022/04/11 05:55:40;;;;;;;20.80;14.50;;;;;;;2.83;nan;101715.28;5052934;28;20041;-58
2022/04/11 05:58:06;;;;;;;16.98;13.75;;;;;;;2.70;nan;101653.59;5051670;28;20041;-58
2022/04/11 06:00:32;;;;;;;15.70;13.73;;;;;;;3.23;nan;101719.25;5052272;28;20039;-58
2022/04/11 06:02:59;;;;;;;17.25;14.02;;;;;;;3.45;nan;101729.88;5053825;28;20041;-58
2022/04/11 06:05:24;;;;;;;15.93;13.35;;;;;;;3.64;nan;101724.91;5054175;28;20056;-57
2022/04/11 06:07:50;;;;;;;17.17;13.35;;;;;;;3.87;nan;101726.00;5053184;28;20130;-57
2022/04/11 06:10:16;;;;;;;18.58;13.50;;;;;;;4.04;nan;101717.44;5052692;28;20787;-60
2022/04/11 06:12:41;;;;;;;17.98;12.77;;;;;;;4.26;nan;101727.19;5052475;28;20524;-55
2022/04/11 06:15:07;;;;;;;14.95;11.68;;;;;;;4.46;nan;101733.41;5052397;28;20044;-57
2022/04/11 06:17:33;;;;;;;17.38;11.95;;;;;;;4.70;nan;101751.78;5052997;28;20069;-58
2022/04/11 06:20:00;;;;;;;15.63;11.13;;;;;;;4.91;nan;101746.69;5053110;28;20036;-57
2022/04/11 06:22:26;;;;;;;16.75;11.15;;;;;;;5.08;nan;101747.66;5050979;28;20071;-58
2022/04/11 06:24:59;;;;;;;13.52;11.43;;;;;;;5.29;nan;101753.81;5057505;28;20032;-57
2022/04/11 06:27:25;;;;;;;13.73;11.23;;;;;;;5.52;nan;101757.38;5039711;28;20393;-59
2022/04/11 06:29:56;;;;;;;15.23;11.43;;;;;;;5.70;nan;101762.66;5073070;28;20123;-59
2022/04/11 06:32:40;;;;;;;16.73;11.15;;;;;;;5.83;nan;101774.88;5072805;28;20538;-58
2022/04/11 06:35:06;;;;;;;12.65;10.45;;;;;;;5.84;nan;101768.75;5060122;28;20486;-60
2022/04/11 06:37:31;;;;;;;14.25;10.95;;;;;;;5.81;nan;101768.75;5056647;28;20028;-62
2022/04/11 06:39:58;;;;;;;13.32;9.95;;;;;;;5.85;nan;101770.56;5052668;28;20358;-59
2022/04/11 06:42:23;;;;;;;17.13;10.57;;;;;;;5.89;nan;101767.09;5061457;28;20067;-59
2022/04/11 06:44:48;;;;;;;16.33;11.65;;;;;;;5.88;nan;101770.56;5050615;28;20071;-60
2022/04/11 06:47:14;;;;;;;11.30;10.02;;;;;;;5.75;nan;101741.78;5050408;28;20060;-57
2022/04/11 06:49:39;;;;;;;14.43;10.10;;;;;;;6.06;nan;101770.59;5052704;28;20127;-56
2022/04/11 06:52:06;;;;;;;13.05;10.07;;;;;;;6.13;nan;101780.16;5050682;28;20500;-58
2022/04/11 06:54:32;;;;;;;15.63;10.68;;;;;;;5.83;nan;101696.50;5051142;28;20033;-57
2022/04/11 06:56:57;;;;;;;16.73;10.00;;;;;;;6.51;nan;101788.00;5062446;28;20065;-59
2022/04/11 06:59:26;;;;;;;15.57;9.68;;;;;;;6.98;nan;101777.44;5051817;28;20511;-58
2022/04/11 07:01:52;;;;;;;14.13;9.73;;;;;;;7.29;nan;101739.84;5051778;28;20424;-56
2022/04/11 07:04:18;;;;;;;14.05;9.90;;;;;;;7.87;nan;101714.16;5056801;28;20090;-59
2022/04/11 07:06:43;;;;;;;10.90;9.80;;;;;;;8.76;nan;101777.19;5051437;28;20041;-57
2022/04/11 07:09:08;;;;;;;12.20;8.90;;;;;;;9.42;nan;101768.56;5050559;28;20037;-59
2022/04/11 07:11:34;;;;;;;13.25;9.10;;;;;;;9.87;nan;101776.69;5052461;28;20029;-58
2022/04/11 07:14:00;;;;;;;10.68;9.07;;;;;;;;;;5060018;28;20052;-57
2022/04/11 07:16:25;;;;;;;10.18;8.90;;;;;;;10.60;nan;101777.28;5051736;28;20037;-56
2022/04/11 07:18:51;;;;;;;11.57;8.63;;;;;;;10.99;nan;101780.09;5067938;28;20079;-58
2022/04/11 07:21:17;;;;;;;9.02;8.13;;;;;;;11.31;nan;101775.06;5072068;28;20033;-58
2022/04/11 07:23:42;;;;;;;12.45;8.38;;;;;;;11.32;nan;101779.44;5053141;28;20036;-59
2022/04/11 07:26:08;;;;;;;10.68;8.00;;;;;;;11.97;nan;101771.88;5056603;28;20398;-56
2022/04/11 07:28:34;;;;;;;10.20;7.65;;;;;;;12.27;nan;101784.34;5051464;28;20064;-59
2022/04/11 07:30:59;;;;;;;10.90;7.38;;;;;;;12.29;nan;101771.97;5060661;28;20097;-58
2022/04/11 07:33:24;;;;;;;9.35;7.30;;;;;;;12.23;nan;101775.63;5053529;28;20041;-60
2022/04/11 07:35:50;;;;;;;10.48;8.23;;;;;;;11.53;nan;101696.38;5047003;28;20065;-59
2022/04/11 07:38:15;;;;;;;11.07;7.90;;;;;;;11.72;nan;101718.81;5045918;28;20500;-59
2022/04/11 07:40:41;;;;;;;8.95;7.18;;;;;;;12.13;nan;101770.63;5046259;28;20120;-59
2022/04/11 07:43:06;;;;;;;11.45;7.22;;;;;;;12.23;nan;101709.63;5035014;28;20029;-59
2022/04/11 07:45:31;;;;;;;10.73;7.43;;;;;;;12.77;nan;101765.44;5045990;28;20394;-59
2022/04/11 07:47:56;;;;;;;11.07;7.90;;;;;;;12.31;nan;101705.03;5041842;28;20143;-59
2022/04/11 07:50:22;;;;;;;8.75;7.55;;;;;;;12.69;nan;101750.72;5046756;28;20037;-59
2022/04/11 07:52:48;;;;;;;9.90;8.20;;;;;;;12.96;nan;101756.09;5055615;28;20434;-59
2022/04/11 07:55:15;;;;;;;13.75;7.88;;;;;;;13.41;nan;101713.41;5071014;28;20037;-60
2022/04/11 07:57:41;;;;;;;10.68;6.97;;;;;;;13.19;nan;101689.38;5055642;28;20041;-60
2022/04/11 08:00:07;;;;;;;11.20;8.00;;;;;;;13.49;nan;101717.56;5054359;28;20099;-59
2022/04/11 08:02:33;;;;;;;8.27;7.47;;;;;;;13.87;nan;101747.25;5054040;28;20041;-60
2022/04/11 08:05:03;;;;;;;11.65;8.35;;;;;;;13.95;nan;101739.97;5055683;28;20436;-60
2022/04/11 08:07:32;;;;;;;8.75;6.70;;;;;;;13.74;nan;101680.63;5054243;28;20112;-60
2022/04/11 08:09:58;;;;;;;12.15;7.32;;;;;;;14.25;nan;101735.41;5054254;28;20046;-60
2022/04/11 08:12:23;;;;;;;10.40;7.82;;;;;;;14.51;nan;101744.25;5054274;28;20029;-60
2022/04/11 08:14:48;;;;;;;8.65;7.50;;;;;;;15.00;nan;101731.94;5054609;28;20393;-60
2022/04/11 08:17:14;;;;;;;9.73;6.75;;;;;;;15.33;nan;101729.78;5043356;28;20021;-60
2022/04/11 08:19:39;;;;;;;8.07;7.22;;;;;;;15.20;nan;101682.53;5054195;28;20124;-60
2022/04/11 08:22:05;;;;;;;7.30;6.18;;;;;;;15.58;nan;101690.84;5043190;28;20041;-58
2022/04/11 08:24:31;;;;;;;8.45;6.97;;;;;;;15.97;nan;101725.50;5033845;28;20042;-59
2022/04/11 08:26:58;;;;;;;7.70;6.03;;;;;;;15.92;nan;101744.31;5027433;28;20541;-59
2022/04/11 08:29:24;;;;;;;8.25;5.97;;;;;;;15.74;nan;101681.31;5026883;28;20128;-59
2022/04/11 08:31:49;;;;;;;8.82;6.15;;;;;;;16.12;nan;101732.88;5037931;28;20040;-60
2022/04/11 08:34:15;;;;;;;14.70;6.68;;;;;;;16.09;nan;101688.69;5054745;28;20025;-60
2022/04/11 08:36:40;;;;;;;6.28;5.68;;;;;;;16.42;nan;101722.75;5054516;28;20043;-58
2022/04/11 08:39:06;;;;;;;7.40;6.20;;;;;;;16.68;nan;101734.03;5050019;28;20045;-60
2022/04/11 08:41:33;;;;;;;7.43;6.03;;;;;;;16.61;nan;101674.06;5041559;28;20071;-59
2022/04/11 08:44:00;;;;;;;6.60;5.80;;;;;;;16.94;nan;101686.78;5052665;28;20043;-59
2022/04/11 08:46:27;;;;;;;6.38;5.68;;;;;;;17.11;nan;101730.31;5052171;28;20041;-60
2022/04/11 08:48:52;;;;;;;9.05;5.70;;;;;;;17.39;nan;101744.13;5053460;28;20048;-59
2022/04/11 08:51:18;;;;;;;9.55;5.72;;;;;;;17.59;nan;101686.44;5057086;28;20033;-59
2022/04/11 08:53:44;;;;;;;6.72;5.65;;;;;;;18.17;nan;101725.25;5050168;28;20459;-60
2022/04/11 08:56:09;;;;;;;7.03;5.50;;;;;;;17.94;nan;101673.13;5052566;28;20043;-60
2022/04/11 08:58:34;;;;;;;7.95;5.82;;;;;;;18.37;nan;101679.81;5021308;28;20029;-60
2022/04/11 09:01:00;;;;;;;9.88;6.43;;;;;;;18.78;nan;101717.69;5048766;28;20037;-60
2022/04/11 09:03:25;;;;;;;9.20;6.35;;;;;;;18.58;nan;101717.00;5053551;28;20032;-61
2022/04/11 09:06:03;;;;;;;5.68;5.03;;;;;;;18.50;nan;101717.41;5054535;28;20065;-59
2022/04/11 09:08:42;;;;;;;6.45;5.38;;;;;;;18.68;nan;101720.94;5035290;28;20503;-60
2022/04/11 09:11:07;;;;;;;7.20;5.32;;;;;;;18.45;nan;101716.72;5033073;28;20036;-61
2022/04/11 09:13:52;;;;;;;5.90;5.30;;;;;;;17.83;nan;101650.63;5028228;28;20409;-60
2022/04/11 09:16:18;;;;;;;7.30;5.18;;;;;;;18.10;nan;101656.34;5052317;28;20401;-60
2022/04/11 09:18:52;;;;;;;6.13;5.05;;;;;;;18.91;nan;101700.06;5053185;28;20115;-61
2022/04/11 09:21:22;;;;;;;6.68;5.63;;;;;;;19.14;nan;101703.34;5046073;28;20410;-61
2022/04/11 09:23:48;;;;;;;7.18;5.40;;;;;;;19.28;nan;101687.41;5043704;28;20025;-60
2022/04/11 09:26:21;;;;;;;5.57;4.93;;;;;;;19.71;nan;101709.94;5052141;28;20033;-60
2022/04/11 09:29:00;;;;;;;5.88;4.75;;;;;;;19.43;nan;101699.97;5068637;28;20082;-62
2022/04/11 09:31:26;;;;;;;6.65;5.43;;;;;;;19.67;nan;101691.41;5069232;28;20047;-61
2022/04/11 09:33:51;;;;;;;5.68;4.95;;;;;;;20.10;nan;101700.53;5041565;28;20113;-61
2022/04/11 09:36:17;;;;;;;5.57;4.90;;;;;;;19.76;nan;101639.28;5051139;28;20040;-61
2022/04/11 09:38:42;;;;;;;9.65;5.00;;;;;;;20.23;nan;101701.50;5068668;28;20033;-62
2022/04/11 09:41:07;;;;;;;7.43;3.85;;;;;;;19.97;nan;101651.41;5053470;28;20183;-60
2022/04/11 09:43:34;;;;;;;4.32;3.42;;;;;;;20.59;nan;101702.97;5050832;28;20119;-60
2022/04/11 09:46:00;;;;;;;4.45;2.80;;;;;;;20.29;nan;101598.72;5054503;28;20095;-60
2022/04/11 09:48:37;;;;;;;5.03;2.97;;;;;;;20.64;nan;101693.72;5061235;28;20068;-60
2022/04/11 09:51:09;;;;;;;8.00;3.38;;;;;;;20.85;nan;101699.56;5047467;28;20040;-61
2022/04/11 09:53:35;;;;;;;5.50;3.30;;;;;;;20.74;nan;101691.34;5068419;28;20359;-60
2022/04/11 09:56:05;;;;;;;6.15;3.67;;;;;;;21.03;nan;101670.81;5047052;28;20033;-60
2022/04/11 09:58:33;;;;;;;5.00;3.17;;;;;;;21.27;nan;101671.97;5042129;28;20060;-60
2022/04/11 10:00:58;;;;;;;6.53;3.67;;;;;;;21.13;nan;101626.50;5037497;28;20109;-60
2022/04/11 10:03:24;;;;;;;7.25;3.58;;;;;;;21.50;nan;101678.53;5047941;28;20577;-60
2022/04/11 10:05:50;;;;;;;4.45;2.65;;;;;;;21.27;nan;101627.31;5037760;28;20055;-59
2022/04/11 10:08:16;;;;;;;5.57;2.78;;;;;;;20.92;nan;101609.06;5043783;28;20521;-61
2022/04/11 10:10:42;;;;;;;3.92;2.45;;;;;;;21.15;nan;101648.66;5043515;28;20375;-61
2022/04/11 10:13:11;;;;;;;6.18;3.08;;;;;;;21.40;nan;101672.03;5045457;28;20040;-61
2022/04/11 10:15:37;;;;;;;5.22;3.10;;;;;;;21.45;nan;101654.75;5049947;28;20038;-61
2022/04/11 10:18:04;;;;;;;4.78;3.25;;;;;;;21.19;nan;101675.13;5038760;28;20044;-61
2022/04/11 10:20:50;;;;;;;5.53;3.60;;;;;;;21.63;nan;101677.63;5051649;28;20056;-61
2022/04/11 10:23:31;;;;;;;5.68;3.63;;;;;;;21.68;nan;101613.03;5049672;28;20132;-61
2022/04/11 10:26:00;;;;;;;7.28;3.78;;;;;;;22.03;nan;101661.66;5052527;28;20029;-61
2022/04/11 10:28:27;;;;;;;6.80;3.90;;;;;;;21.97;nan;101622.72;5068102;28;20414;-61
2022/04/11 10:31:12;;;;;;;5.25;3.97;;;;;;;22.18;nan;101605.13;5068231;28;20036;-61
2022/04/11 10:33:51;;;;;;;6.10;4.85;;;;;;;22.34;nan;101648.72;5067841;28;20089;-61
2022/04/11 10:36:37;;;;;;;6.85;4.45;;;;;;;22.37;nan;101651.19;5052602;28;20032;-62
2022/04/11 10:39:15;;;;;;;5.53;5.00;;;;;;;21.99;nan;101649.41;5051583;28;20036;-60
2022/04/11 10:42:13;;;;;;;8.57;4.57;;;;;;;22.27;nan;101650.09;5052706;28;20040;-60
2022/04/11 10:44:45;;;;;;;5.72;4.60;;;;;;;22.20;nan;101648.81;5044064;28;20040;-60
2022/04/11 10:47:11;;;;;;;4.50;4.05;;;;;;;21.98;nan;101634.28;5052380;28;20053;-61
2022/04/11 10:49:48;;;;;;;5.10;4.28;;;;;;;21.35;nan;101650.91;5051152;28;20048;-60
2022/04/11 10:52:36;;;;;;;5.40;4.75;;;;;;;21.24;nan;101637.38;5052589;28;20067;-61
2022/04/11 10:55:18;;;;;;;5.43;4.40;;;;;;;21.30;nan;101623.59;5052217;28;20060;-61
2022/04/11 10:57:57;;;;;;;6.18;4.40;;;;;;;21.15;nan;101584.41;5052103;28;20119;-60
2022/04/11 11:00:26;;;;;;;4.35;3.95;;;;;;;21.46;nan;101597.50;5052246;28;20025;-60
2022/04/11 11:02:52;;;;;;;5.05;4.35;;;;;;;21.78;nan;101612.31;5051945;28;20028;-60
2022/04/11 11:05:24;;;;;;;5.97;3.90;;;;;;;21.94;nan;101614.00;5052460;28;20482;-60
2022/04/11 11:08:09;;;;;;;5.10;3.83;;;;;;;21.77;nan;101607.06;5052021;28;20095;-60
2022/04/11 11:11:01;;;;;;;5.22;4.43;;;;;;;21.58;nan;101602.06;5052075;28;20151;-62
2022/04/11 11:13:38;;;;;;;5.10;3.90;;;;;;;22.06;nan;101589.06;5051898;28;20040;-60
2022/04/11 11:16:03;;;;;;;6.55;3.92;;;;;;;22.02;nan;101606.28;5051888;28;20501;-61
2022/04/11 11:18:49;;;;;;;4.83;4.33;;;;;;;21.89;nan;101587.50;5051497;28;20033;-61
2022/04/11 11:21:17;;;;;;;5.45;4.15;;;;;;;20.87;nan;101522.88;5051744;28;20280;-61
2022/04/11 11:24:02;;;;;;;5.25;4.03;;;;;;;21.99;nan;101567.16;5051650;28;20029;-61
2022/04/11 11:26:29;;;;;;;5.57;4.07;;;;;;;22.71;nan;101517.38;5051766;28;20032;-59
2022/04/11 11:28:54;;;;;;;6.13;4.03;;;;;;;23.33;nan;101563.78;5051748;28;20195;-60
2022/04/11 11:31:20;;;;;;;5.63;3.92;;;;;;;23.06;nan;101552.41;5052188;28;20116;-61
2022/04/11 11:33:55;;;;;;;5.93;3.78;;;;;;;22.32;nan;101513.00;5067313;28;20048;-60
2022/04/11 11:36:28;;;;;;;6.72;4.35;;;;;;;22.20;nan;101509.38;5050264;28;20107;-61
2022/04/11 11:38:53;;;;;;;5.88;3.70;;;;;;;22.81;nan;101556.88;5050434;28;20385;-61
2022/04/11 11:41:19;;;;;;;5.05;3.90;;;;;;;22.93;nan;101517.53;5051601;28;20033;-61
2022/04/11 11:43:44;;;;;;;4.45;4.05;;;;;;;23.58;nan;101547.59;5052077;28;20037;-62
2022/04/11 11:46:09;;;;;;;5.38;3.65;;;;;;;23.55;nan;101534.41;5051427;28;20041;-61